sensor_id;sensor_type;location;lat;lon;timestamp;P1;durP1;ratioP1;P2;durP2;ratioP2
8584;SDS011;7180;52.742;11.420;2022-08-04T00:02:01;7.93;;;7.43;;
8584;SDS011;7180;52.742;11.420;2022-08-04T00:04:35;8.33;;;7.70;;
8584;SDS011;7180;52.742;11.420;2022-08-04T00:09:43;7.90;;;7.40;;
8584;SDS011;7180;52.742;11.420;2022-08-04T00:12:14;7.33;;;6.93;;
8584;SDS011;7180;52.742;11.420;2022-08-04T00:14:46;7.40;;;6.90;;
8584;SDS011;7180;52.742;11.420;2022-08-04T00:17:12;7.67;;;7.17;;
8584;SDS011;7180;52.742;11.420;2022-08-04T00:19:43;7.83;;;7.43;;
8584;SDS011;7180;52.742;11.420;2022-08-04T00:22:10;8.07;;;7.57;;
8584;SDS011;7180;52.742;11.420;2022-08-04T00:24:37;8.33;;;7.83;;
8584;SDS011;7180;52.742;11.420;2022-08-04T00:27:03;7.67;;;7.27;;
8584;SDS011;7180;52.742;11.420;2022-08-04T00:29:29;8.37;;;7.77;;
8584;SDS011;7180;52.742;11.420;2022-08-04T00:31:55;8.10;;;7.60;;
8584;SDS011;7180;52.742;11.420;2022-08-04T00:34:25;7.90;;;7.40;;
8584;SDS011;7180;52.742;11.420;2022-08-04T00:36:52;7.80;;;7.30;;
8584;SDS011;7180;52.742;11.420;2022-08-04T00:39:18;8.00;;;7.40;;
8584;SDS011;7180;52.742;11.420;2022-08-04T00:41:50;7.73;;;7.23;;
8584;SDS011;7180;52.742;11.420;2022-08-04T00:52:35;8.30;;;7.80;;
8584;SDS011;7180;52.742;11.420;2022-08-04T00:55:10;8.40;;;7.90;;
8584;SDS011;7180;52.742;11.420;2022-08-04T01:00:50;8.37;;;7.77;;
8584;SDS011;7180;52.742;11.420;2022-08-04T01:03:23;8.10;;;7.63;;
8584;SDS011;7180;52.742;11.420;2022-08-04T01:06:17;8.37;;;7.80;;
8584;SDS011;7180;52.742;11.420;2022-08-04T01:08:57;8.17;;;7.73;;
8584;SDS011;7180;52.742;11.420;2022-08-04T01:16:48;8.10;;;7.50;;
8584;SDS011;7180;52.742;11.420;2022-08-04T01:31:01;8.20;;;7.70;;
8584;SDS011;7180;52.742;11.420;2022-08-04T01:33:38;8.87;;;8.27;;
8584;SDS011;7180;52.742;11.420;2022-08-04T01:36:06;8.20;;;7.70;;
8584;SDS011;7180;52.742;11.420;2022-08-04T01:38:35;8.83;;;8.20;;
8584;SDS011;7180;52.742;11.420;2022-08-04T01:41:05;8.30;;;7.80;;
8584;SDS011;7180;52.742;11.420;2022-08-04T01:43:32;8.30;;;7.80;;
8584;SDS011;7180;52.742;11.420;2022-08-04T01:46:00;8.97;;;8.27;;
8584;SDS011;7180;52.742;11.420;2022-08-04T01:48:27;8.73;;;8.23;;
8584;SDS011;7180;52.742;11.420;2022-08-04T01:50:56;8.73;;;8.13;;
8584;SDS011;7180;52.742;11.420;2022-08-04T01:53:23;8.83;;;8.13;;
8584;SDS011;7180;52.742;11.420;2022-08-04T01:55:54;8.50;;;8.00;;
8584;SDS011;7180;52.742;11.420;2022-08-04T01:58:22;8.70;;;8.20;;
8584;SDS011;7180;52.742;11.420;2022-08-04T02:00:55;8.30;;;7.73;;
8584;SDS011;7180;52.742;11.420;2022-08-04T02:03:26;9.17;;;8.53;;
8584;SDS011;7180;52.742;11.420;2022-08-04T02:05:52;8.40;;;7.80;;
8584;SDS011;7180;52.742;11.420;2022-08-04T02:11:22;9.03;;;8.43;;
8584;SDS011;7180;52.742;11.420;2022-08-04T02:21:57;8.93;;;8.43;;
8584;SDS011;7180;52.742;11.420;2022-08-04T02:24:32;8.60;;;8.10;;
8584;SDS011;7180;52.742;11.420;2022-08-04T02:27:07;8.83;;;8.13;;
8584;SDS011;7180;52.742;11.420;2022-08-04T02:29:35;8.83;;;8.13;;
8584;SDS011;7180;52.742;11.420;2022-08-04T02:32:14;8.70;;;8.10;;
8584;SDS011;7180;52.742;11.420;2022-08-04T02:37:35;8.63;;;8.07;;
8584;SDS011;7180;52.742;11.420;2022-08-04T02:40:03;9.33;;;8.63;;
8584;SDS011;7180;52.742;11.420;2022-08-04T02:42:32;8.37;;;7.87;;
8584;SDS011;7180;52.742;11.420;2022-08-04T02:44:58;8.27;;;7.77;;
8584;SDS011;7180;52.742;11.420;2022-08-04T02:47:25;8.33;;;7.70;;
8584;SDS011;7180;52.742;11.420;2022-08-04T02:49:52;8.00;;;7.50;;
8584;SDS011;7180;52.742;11.420;2022-08-04T02:52:18;8.30;;;7.80;;
8584;SDS011;7180;52.742;11.420;2022-08-04T02:54:46;8.20;;;7.80;;
8584;SDS011;7180;52.742;11.420;2022-08-04T02:57:13;8.47;;;7.97;;
8584;SDS011;7180;52.742;11.420;2022-08-04T03:00:21;8.70;;;8.10;;
8584;SDS011;7180;52.742;11.420;2022-08-04T03:16:59;8.70;;;8.20;;
8584;SDS011;7180;52.742;11.420;2022-08-04T03:25:40;9.20;;;8.60;;
8584;SDS011;7180;52.742;11.420;2022-08-04T03:28:33;8.70;;;8.10;;
8584;SDS011;7180;52.742;11.420;2022-08-04T03:31:21;9.87;;;9.17;;
8584;SDS011;7180;52.742;11.420;2022-08-04T03:37:07;9.30;;;8.70;;
8584;SDS011;7180;52.742;11.420;2022-08-04T03:39:48;9.37;;;8.87;;
8584;SDS011;7180;52.742;11.420;2022-08-04T03:59:26;9.57;;;8.97;;
8584;SDS011;7180;52.742;11.420;2022-08-04T04:02:34;9.47;;;8.80;;
8584;SDS011;7180;52.742;11.420;2022-08-04T04:16:30;9.70;;;9.10;;
8584;SDS011;7180;52.742;11.420;2022-08-04T04:27:32;9.90;;;9.20;;
8584;SDS011;7180;52.742;11.420;2022-08-04T04:32:54;10.33;;;9.53;;
8584;SDS011;7180;52.742;11.420;2022-08-04T04:36:34;10.07;;;9.37;;
8584;SDS011;7180;52.742;11.420;2022-08-04T04:38:56;9.30;;;8.80;;
8584;SDS011;7180;52.742;11.420;2022-08-04T04:41:35;10.17;;;9.37;;
8584;SDS011;7180;52.742;11.420;2022-08-04T04:46:46;9.47;;;8.90;;
8584;SDS011;7180;52.742;11.420;2022-08-04T04:52:29;9.40;;;8.80;;
8584;SDS011;7180;52.742;11.420;2022-08-04T04:55:20;9.00;;;8.50;;
8584;SDS011;7180;52.742;11.420;2022-08-04T04:57:59;10.00;;;9.40;;
8584;SDS011;7180;52.742;11.420;2022-08-04T05:00:33;8.53;;;8.03;;
8584;SDS011;7180;52.742;11.420;2022-08-04T05:06:17;8.47;;;7.93;;
8584;SDS011;7180;52.742;11.420;2022-08-04T05:09:00;8.80;;;8.30;;
8584;SDS011;7180;52.742;11.420;2022-08-04T05:14:49;8.53;;;7.90;;
8584;SDS011;7180;52.742;11.420;2022-08-04T05:17:19;8.85;;;8.20;;
8584;SDS011;7180;52.742;11.420;2022-08-04T05:22:40;10.02;;;9.23;;
8584;SDS011;7180;52.742;11.420;2022-08-04T05:28:17;8.70;;;8.10;;
8584;SDS011;7180;52.742;11.420;2022-08-04T05:30:37;9.63;;;8.95;;
8584;SDS011;7180;52.742;11.420;2022-08-04T05:33:14;8.55;;;8.05;;
8584;SDS011;7180;52.742;11.420;2022-08-04T05:35:51;8.80;;;8.30;;
8584;SDS011;7180;52.742;11.420;2022-08-04T05:38:21;8.70;;;8.20;;
8584;SDS011;7180;52.742;11.420;2022-08-04T05:40:50;9.20;;;8.60;;
8584;SDS011;7180;52.742;11.420;2022-08-04T05:43:16;9.32;;;8.63;;
8584;SDS011;7180;52.742;11.420;2022-08-04T05:45:42;10.20;;;9.50;;
8584;SDS011;7180;52.742;11.420;2022-08-04T05:48:12;9.60;;;8.88;;
8584;SDS011;7180;52.742;11.420;2022-08-04T05:50:37;10.40;;;9.80;;
8584;SDS011;7180;52.742;11.420;2022-08-04T05:53:03;9.77;;;9.27;;
8584;SDS011;7180;52.742;11.420;2022-08-04T05:55:30;9.55;;;9.05;;
8584;SDS011;7180;52.742;11.420;2022-08-04T05:57:57;10.23;;;9.52;;
8584;SDS011;7180;52.742;11.420;2022-08-04T06:00:23;10.25;;;9.65;;
8584;SDS011;7180;52.742;11.420;2022-08-04T06:02:51;10.40;;;9.70;;
8584;SDS011;7180;52.742;11.420;2022-08-04T06:05:17;10.30;;;9.60;;
8584;SDS011;7180;52.742;11.420;2022-08-04T06:07:44;10.80;;;10.20;;
8584;SDS011;7180;52.742;11.420;2022-08-04T06:10:10;10.40;;;9.70;;
8584;SDS011;7180;52.742;11.420;2022-08-04T06:12:37;10.80;;;10.07;;
8584;SDS011;7180;52.742;11.420;2022-08-04T06:15:19;9.82;;;9.23;;
8584;SDS011;7180;52.742;11.420;2022-08-04T06:17:49;10.27;;;9.68;;
8584;SDS011;7180;52.742;11.420;2022-08-04T06:20:17;10.20;;;9.60;;
8584;SDS011;7180;52.742;11.420;2022-08-04T06:22:45;9.48;;;8.98;;
8584;SDS011;7180;52.742;11.420;2022-08-04T06:25:14;9.60;;;9.10;;
8584;SDS011;7180;52.742;11.420;2022-08-04T06:27:44;10.10;;;9.20;;
8584;SDS011;7180;52.742;11.420;2022-08-04T06:30:10;9.88;;;9.25;;
8584;SDS011;7180;52.742;11.420;2022-08-04T06:32:39;9.25;;;8.75;;
8584;SDS011;7180;52.742;11.420;2022-08-04T06:35:14;9.43;;;8.93;;
8584;SDS011;7180;52.742;11.420;2022-08-04T06:37:45;8.32;;;7.82;;
8584;SDS011;7180;52.742;11.420;2022-08-04T06:40:12;8.23;;;7.63;;
8584;SDS011;7180;52.742;11.420;2022-08-04T06:42:40;8.10;;;7.60;;
8584;SDS011;7180;52.742;11.420;2022-08-04T06:45:06;8.15;;;7.68;;
8584;SDS011;7180;52.742;11.420;2022-08-04T06:47:34;8.07;;;7.57;;
8584;SDS011;7180;52.742;11.420;2022-08-04T06:50:01;7.65;;;7.10;;
8584;SDS011;7180;52.742;11.420;2022-08-04T06:52:29;7.65;;;7.10;;
8584;SDS011;7180;52.742;11.420;2022-08-04T06:54:54;8.05;;;7.47;;
8584;SDS011;7180;52.742;11.420;2022-08-04T06:57:23;7.50;;;6.82;;
8584;SDS011;7180;52.742;11.420;2022-08-04T06:59:54;7.22;;;6.82;;
8584;SDS011;7180;52.742;11.420;2022-08-04T07:02:25;7.10;;;6.70;;
8584;SDS011;7180;52.742;11.420;2022-08-04T07:04:54;7.82;;;7.22;;
8584;SDS011;7180;52.742;11.420;2022-08-04T07:07:20;7.47;;;6.97;;
8584;SDS011;7180;52.742;11.420;2022-08-04T07:09:48;8.25;;;7.55;;
8584;SDS011;7180;52.742;11.420;2022-08-04T07:12:13;7.38;;;6.88;;
8584;SDS011;7180;52.742;11.420;2022-08-04T07:14:44;7.70;;;7.03;;
8584;SDS011;7180;52.742;11.420;2022-08-04T07:17:10;7.88;;;7.15;;
8584;SDS011;7180;52.742;11.420;2022-08-04T07:19:38;8.23;;;7.40;;
8584;SDS011;7180;52.742;11.420;2022-08-04T07:22:03;8.55;;;7.07;;
8584;SDS011;7180;52.742;11.420;2022-08-04T07:24:33;7.15;;;6.75;;
8584;SDS011;7180;52.742;11.420;2022-08-04T07:27:00;7.43;;;6.78;;
8584;SDS011;7180;52.742;11.420;2022-08-04T07:29:26;7.72;;;7.13;;
8584;SDS011;7180;52.742;11.420;2022-08-04T07:31:52;7.40;;;6.90;;
8584;SDS011;7180;52.742;11.420;2022-08-04T07:34:18;7.45;;;6.90;;
8584;SDS011;7180;52.742;11.420;2022-08-04T07:36:44;12.60;;;7.57;;
8584;SDS011;7180;52.742;11.420;2022-08-04T07:39:10;7.53;;;6.93;;
8584;SDS011;7180;52.742;11.420;2022-08-04T07:41:36;8.00;;;7.40;;
8584;SDS011;7180;52.742;11.420;2022-08-04T07:44:02;7.70;;;7.15;;
8584;SDS011;7180;52.742;11.420;2022-08-04T07:46:28;8.15;;;7.50;;
8584;SDS011;7180;52.742;11.420;2022-08-04T07:48:54;7.82;;;7.28;;
8584;SDS011;7180;52.742;11.420;2022-08-04T07:51:20;7.47;;;7.07;;
8584;SDS011;7180;52.742;11.420;2022-08-04T07:53:46;7.72;;;7.13;;
8584;SDS011;7180;52.742;11.420;2022-08-04T07:56:12;7.43;;;7.03;;
8584;SDS011;7180;52.742;11.420;2022-08-04T07:58:40;7.60;;;7.00;;
8584;SDS011;7180;52.742;11.420;2022-08-04T08:01:06;7.80;;;7.30;;
8584;SDS011;7180;52.742;11.420;2022-08-04T08:03:34;7.38;;;6.90;;
8584;SDS011;7180;52.742;11.420;2022-08-04T08:05:59;7.75;;;7.18;;
8584;SDS011;7180;52.742;11.420;2022-08-04T08:08:25;7.93;;;7.25;;
8584;SDS011;7180;52.742;11.420;2022-08-04T08:10:50;8.23;;;7.35;;
8584;SDS011;7180;52.742;11.420;2022-08-04T08:13:17;7.90;;;7.18;;
8584;SDS011;7180;52.742;11.420;2022-08-04T08:15:44;8.13;;;7.40;;
8584;SDS011;7180;52.742;11.420;2022-08-04T08:18:10;7.60;;;7.03;;
8584;SDS011;7180;52.742;11.420;2022-08-04T08:20:36;7.15;;;6.63;;
8584;SDS011;7180;52.742;11.420;2022-08-04T08:23:02;7.78;;;7.18;;
8584;SDS011;7180;52.742;11.420;2022-08-04T08:25:28;7.40;;;6.90;;
8584;SDS011;7180;52.742;11.420;2022-08-04T08:27:55;7.72;;;7.22;;
8584;SDS011;7180;52.742;11.420;2022-08-04T08:30:21;7.18;;;6.57;;
8584;SDS011;7180;52.742;11.420;2022-08-04T08:32:47;7.00;;;6.50;;
8584;SDS011;7180;52.742;11.420;2022-08-04T08:35:13;7.57;;;6.95;;
8584;SDS011;7180;52.742;11.420;2022-08-04T08:37:47;7.45;;;7.05;;
8584;SDS011;7180;52.742;11.420;2022-08-04T08:40:26;6.78;;;6.38;;
8584;SDS011;7180;52.742;11.420;2022-08-04T08:51:58;7.05;;;6.65;;
8584;SDS011;7180;52.742;11.420;2022-08-04T08:54:46;6.85;;;6.45;;
8584;SDS011;7180;52.742;11.420;2022-08-04T09:00:14;6.65;;;6.28;;
8584;SDS011;7180;52.742;11.420;2022-08-04T09:03:37;6.75;;;6.20;;
8584;SDS011;7180;52.742;11.420;2022-08-04T09:11:27;7.35;;;6.75;;
8584;SDS011;7180;52.742;11.420;2022-08-04T09:14:04;6.85;;;6.45;;
8584;SDS011;7180;52.742;11.420;2022-08-04T09:16:48;6.75;;;6.22;;
8584;SDS011;7180;52.742;11.420;2022-08-04T09:19:20;7.32;;;6.82;;
8584;SDS011;7180;52.742;11.420;2022-08-04T09:21:58;6.63;;;6.22;;
8584;SDS011;7180;52.742;11.420;2022-08-04T09:27:25;7.10;;;6.65;;
8584;SDS011;7180;52.742;11.420;2022-08-04T09:30:30;6.22;;;5.80;;
8584;SDS011;7180;52.742;11.420;2022-08-04T09:36:58;6.53;;;6.20;;
8584;SDS011;7180;52.742;11.420;2022-08-04T09:39:02;6.50;;;6.10;;
8584;SDS011;7180;52.742;11.420;2022-08-04T09:47:12;6.88;;;6.28;;
8584;SDS011;7180;52.742;11.420;2022-08-04T09:49:54;6.25;;;5.95;;
8584;SDS011;7180;52.742;11.420;2022-08-04T09:58:10;6.40;;;6.00;;
8584;SDS011;7180;52.742;11.420;2022-08-04T10:00:47;6.05;;;5.72;;
8584;SDS011;7180;52.742;11.420;2022-08-04T10:03:17;6.75;;;6.25;;
8584;SDS011;7180;52.742;11.420;2022-08-04T10:08:53;6.30;;;5.90;;
8584;SDS011;7180;52.742;11.420;2022-08-04T10:13:57;6.53;;;6.15;;
8584;SDS011;7180;52.742;11.420;2022-08-04T10:19:27;6.43;;;5.93;;
8584;SDS011;7180;52.742;11.420;2022-08-04T10:24:38;5.28;;;5.07;;
8584;SDS011;7180;52.742;11.420;2022-08-04T10:27:27;5.85;;;5.55;;
8584;SDS011;7180;52.742;11.420;2022-08-04T10:30:01;5.80;;;5.50;;
8584;SDS011;7180;52.742;11.420;2022-08-04T10:32:49;6.00;;;5.70;;
8584;SDS011;7180;52.742;11.420;2022-08-04T10:35:17;6.00;;;5.70;;
8584;SDS011;7180;52.742;11.420;2022-08-04T10:40:41;6.18;;;5.75;;
8584;SDS011;7180;52.742;11.420;2022-08-04T10:43:11;6.65;;;6.20;;
8584;SDS011;7180;52.742;11.420;2022-08-04T10:45:46;6.50;;;6.20;;
8584;SDS011;7180;52.742;11.420;2022-08-04T10:48:38;6.35;;;6.05;;
8584;SDS011;7180;52.742;11.420;2022-08-04T10:51:29;6.75;;;6.40;;
8584;SDS011;7180;52.742;11.420;2022-08-04T10:54:05;6.80;;;6.32;;
8584;SDS011;7180;52.742;11.420;2022-08-04T10:56:38;6.43;;;6.03;;
8584;SDS011;7180;52.742;11.420;2022-08-04T10:59:27;6.35;;;6.05;;
8584;SDS011;7180;52.742;11.420;2022-08-04T11:02:07;6.28;;;5.80;;
8584;SDS011;7180;52.742;11.420;2022-08-04T11:04:48;5.63;;;5.32;;
8584;SDS011;7180;52.742;11.420;2022-08-04T11:07:22;6.18;;;5.78;;
8584;SDS011;7180;52.742;11.420;2022-08-04T11:09:48;5.95;;;5.50;;
8584;SDS011;7180;52.742;11.420;2022-08-04T11:12:20;5.82;;;5.53;;
8584;SDS011;7180;52.742;11.420;2022-08-04T11:14:51;6.18;;;5.88;;
8584;SDS011;7180;52.742;11.420;2022-08-04T11:17:21;6.50;;;6.10;;
8584;SDS011;7180;52.742;11.420;2022-08-04T11:22:28;6.93;;;6.38;;
8584;SDS011;7180;52.742;11.420;2022-08-04T11:25:05;6.22;;;5.80;;
8584;SDS011;7180;52.742;11.420;2022-08-04T11:27:50;5.88;;;5.47;;
8584;SDS011;7180;52.742;11.420;2022-08-04T11:30:30;5.22;;;4.93;;
8584;SDS011;7180;52.742;11.420;2022-08-04T11:33:05;6.32;;;6.00;;
8584;SDS011;7180;52.742;11.420;2022-08-04T11:35:45;6.35;;;5.93;;
8584;SDS011;7180;52.742;11.420;2022-08-04T11:40:57;5.97;;;5.50;;
8584;SDS011;7180;52.742;11.420;2022-08-04T11:46:35;6.60;;;6.20;;
8584;SDS011;7180;52.742;11.420;2022-08-04T11:51:35;7.00;;;6.60;;
8584;SDS011;7180;52.742;11.420;2022-08-04T11:54:03;7.03;;;6.63;;
8584;SDS011;7180;52.742;11.420;2022-08-04T11:56:29;6.70;;;6.10;;
8584;SDS011;7180;52.742;11.420;2022-08-04T11:58:55;6.10;;;5.80;;
8584;SDS011;7180;52.742;11.420;2022-08-04T12:04:16;6.65;;;6.18;;
8584;SDS011;7180;52.742;11.420;2022-08-04T12:06:55;6.28;;;5.93;;
8584;SDS011;7180;52.742;11.420;2022-08-04T12:09:47;6.50;;;6.20;;
8584;SDS011;7180;52.742;11.420;2022-08-04T12:12:36;6.20;;;5.90;;
8584;SDS011;7180;52.742;11.420;2022-08-04T12:15:15;6.90;;;6.50;;
8584;SDS011;7180;52.742;11.420;2022-08-04T12:18:15;6.47;;;6.07;;
8584;SDS011;7180;52.742;11.420;2022-08-04T12:20:48;7.10;;;6.50;;
8584;SDS011;7180;52.742;11.420;2022-08-04T12:23:21;6.90;;;6.55;;
8584;SDS011;7180;52.742;11.420;2022-08-04T12:25:51;6.88;;;6.55;;
8584;SDS011;7180;52.742;11.420;2022-08-04T12:28:32;6.93;;;6.53;;
8584;SDS011;7180;52.742;11.420;2022-08-04T12:33:52;6.75;;;6.25;;
8584;SDS011;7180;52.742;11.420;2022-08-04T12:39:19;6.45;;;6.05;;
8584;SDS011;7180;52.742;11.420;2022-08-04T12:42:02;8.38;;;5.80;;
8584;SDS011;7180;52.742;11.420;2022-08-04T12:44:36;7.05;;;6.63;;
8584;SDS011;7180;52.742;11.420;2022-08-04T12:47:03;6.50;;;6.10;;
8584;SDS011;7180;52.742;11.420;2022-08-04T12:49:31;6.45;;;6.15;;
8584;SDS011;7180;52.742;11.420;2022-08-04T12:51:59;7.25;;;6.75;;
8584;SDS011;7180;52.742;11.420;2022-08-04T12:54:29;6.50;;;6.10;;
8584;SDS011;7180;52.742;11.420;2022-08-04T12:56:57;7.05;;;6.55;;
8584;SDS011;7180;52.742;11.420;2022-08-04T12:59:25;6.97;;;6.68;;
8584;SDS011;7180;52.742;11.420;2022-08-04T13:01:51;7.30;;;6.80;;
8584;SDS011;7180;52.742;11.420;2022-08-04T13:04:19;7.13;;;6.72;;
8584;SDS011;7180;52.742;11.420;2022-08-04T13:06:51;6.53;;;6.13;;
8584;SDS011;7180;52.742;11.420;2022-08-04T13:09:19;6.90;;;6.40;;
8584;SDS011;7180;52.742;11.420;2022-08-04T13:11:52;6.78;;;6.38;;
8584;SDS011;7180;52.742;11.420;2022-08-04T13:14:19;6.70;;;6.30;;
8584;SDS011;7180;52.742;11.420;2022-08-04T13:16:47;7.18;;;6.78;;
8584;SDS011;7180;52.742;11.420;2022-08-04T13:19:20;6.60;;;6.10;;
8584;SDS011;7180;52.742;11.420;2022-08-04T13:21:45;7.10;;;6.70;;
8584;SDS011;7180;52.742;11.420;2022-08-04T13:24:12;6.68;;;6.15;;
8584;SDS011;7180;52.742;11.420;2022-08-04T13:26:57;6.50;;;6.20;;
8584;SDS011;7180;52.742;11.420;2022-08-04T13:29:29;7.03;;;6.68;;
8584;SDS011;7180;52.742;11.420;2022-08-04T13:32:06;6.72;;;6.43;;
8584;SDS011;7180;52.742;11.420;2022-08-04T13:34:34;6.10;;;5.80;;
8584;SDS011;7180;52.742;11.420;2022-08-04T13:37:01;6.43;;;6.13;;
8584;SDS011;7180;52.742;11.420;2022-08-04T13:39:28;6.70;;;6.30;;
8584;SDS011;7180;52.742;11.420;2022-08-04T13:41:54;6.70;;;6.30;;
8584;SDS011;7180;52.742;11.420;2022-08-04T13:44:23;6.20;;;5.90;;
8584;SDS011;7180;52.742;11.420;2022-08-04T13:46:55;6.20;;;5.80;;
8584;SDS011;7180;52.742;11.420;2022-08-04T13:49:24;6.53;;;5.95;;
8584;SDS011;7180;52.742;11.420;2022-08-04T13:51:59;5.97;;;5.68;;
8584;SDS011;7180;52.742;11.420;2022-08-04T13:54:40;6.50;;;6.00;;
8584;SDS011;7180;52.742;11.420;2022-08-04T13:57:26;6.53;;;5.90;;
8584;SDS011;7180;52.742;11.420;2022-08-04T13:59:56;6.90;;;6.50;;
8584;SDS011;7180;52.742;11.420;2022-08-04T14:02:59;7.30;;;6.70;;
8584;SDS011;7180;52.742;11.420;2022-08-04T14:05:23;5.97;;;5.68;;
8584;SDS011;7180;52.742;11.420;2022-08-04T14:07:54;6.55;;;6.25;;
8584;SDS011;7180;52.742;11.420;2022-08-04T14:10:24;6.40;;;6.10;;
8584;SDS011;7180;52.742;11.420;2022-08-04T14:12:51;7.03;;;6.63;;
8584;SDS011;7180;52.742;11.420;2022-08-04T14:26:18;7.18;;;6.68;;
8584;SDS011;7180;52.742;11.420;2022-08-04T14:28:49;7.20;;;6.80;;
8584;SDS011;7180;52.742;11.420;2022-08-04T14:31:19;6.88;;;6.25;;
8584;SDS011;7180;52.742;11.420;2022-08-04T14:33:47;6.65;;;6.25;;
8584;SDS011;7180;52.742;11.420;2022-08-04T14:36:13;6.97;;;6.47;;
8584;SDS011;7180;52.742;11.420;2022-08-04T14:38:50;6.80;;;6.50;;
8584;SDS011;7180;52.742;11.420;2022-08-04T14:41:24;6.32;;;6.03;;
8584;SDS011;7180;52.742;11.420;2022-08-04T14:46:16;6.00;;;5.70;;
8584;SDS011;7180;52.742;11.420;2022-08-04T14:48:59;6.72;;;6.32;;
8584;SDS011;7180;52.742;11.420;2022-08-04T14:51:34;6.10;;;5.70;;
8584;SDS011;7180;52.742;11.420;2022-08-04T14:54:00;6.60;;;6.20;;
8584;SDS011;7180;52.742;11.420;2022-08-04T14:56:26;6.47;;;6.15;;
8584;SDS011;7180;52.742;11.420;2022-08-04T14:59:06;6.60;;;6.30;;
8584;SDS011;7180;52.742;11.420;2022-08-04T15:01:34;6.65;;;6.35;;
8584;SDS011;7180;52.742;11.420;2022-08-04T15:04:02;6.57;;;6.18;;
8584;SDS011;7180;52.742;11.420;2022-08-04T15:06:30;6.10;;;5.70;;
8584;SDS011;7180;52.742;11.420;2022-08-04T15:08:58;7.25;;;6.85;;
8584;SDS011;7180;52.742;11.420;2022-08-04T15:11:25;6.80;;;6.40;;
8584;SDS011;7180;52.742;11.420;2022-08-04T15:13:51;7.00;;;6.60;;
8584;SDS011;7180;52.742;11.420;2022-08-04T15:16:18;7.90;;;7.30;;
8584;SDS011;7180;52.742;11.420;2022-08-04T15:18:44;7.57;;;7.18;;
8584;SDS011;7180;52.742;11.420;2022-08-04T15:21:10;7.70;;;7.20;;
8584;SDS011;7180;52.742;11.420;2022-08-04T15:23:36;6.80;;;6.40;;
8584;SDS011;7180;52.742;11.420;2022-08-04T15:26:02;6.45;;;6.15;;
8584;SDS011;7180;52.742;11.420;2022-08-04T15:28:29;7.40;;;6.90;;
8584;SDS011;7180;52.742;11.420;2022-08-04T15:31:00;5.65;;;5.30;;
8584;SDS011;7180;52.742;11.420;2022-08-04T15:33:28;6.15;;;5.85;;
8584;SDS011;7180;52.742;11.420;2022-08-04T15:35:55;6.18;;;5.88;;
8584;SDS011;7180;52.742;11.420;2022-08-04T15:38:36;6.07;;;5.47;;
8584;SDS011;7180;52.742;11.420;2022-08-04T15:41:07;5.80;;;5.40;;
8584;SDS011;7180;52.742;11.420;2022-08-04T15:46:05;5.63;;;5.22;;
8584;SDS011;7180;52.742;11.420;2022-08-04T15:48:31;6.43;;;5.85;;
8584;SDS011;7180;52.742;11.420;2022-08-04T15:53:22;6.20;;;5.82;;
8584;SDS011;7180;52.742;11.420;2022-08-04T15:55:48;5.70;;;5.40;;
8584;SDS011;7180;52.742;11.420;2022-08-04T15:58:14;5.90;;;5.60;;
8584;SDS011;7180;52.742;11.420;2022-08-04T16:08:31;5.82;;;5.53;;
8584;SDS011;7180;52.742;11.420;2022-08-04T16:16:29;6.50;;;6.10;;
8584;SDS011;7180;52.742;11.420;2022-08-04T16:19:02;6.10;;;5.80;;
8584;SDS011;7180;52.742;11.420;2022-08-04T16:21:28;6.57;;;6.18;;
8584;SDS011;7180;52.742;11.420;2022-08-04T16:26:54;5.95;;;5.65;;
8584;SDS011;7180;52.742;11.420;2022-08-04T16:34:34;5.80;;;5.40;;
8584;SDS011;7180;52.742;11.420;2022-08-04T16:37:45;5.90;;;5.60;;
8584;SDS011;7180;52.742;11.420;2022-08-04T16:43:05;5.82;;;5.53;;
8584;SDS011;7180;52.742;11.420;2022-08-04T16:48:22;5.90;;;5.50;;
8584;SDS011;7180;52.742;11.420;2022-08-04T16:50:55;6.40;;;5.90;;
8584;SDS011;7180;52.742;11.420;2022-08-04T16:53:22;6.10;;;5.80;;
8584;SDS011;7180;52.742;11.420;2022-08-04T16:55:50;6.20;;;5.90;;
8584;SDS011;7180;52.742;11.420;2022-08-04T16:58:17;6.50;;;6.20;;
8584;SDS011;7180;52.742;11.420;2022-08-04T17:00:49;6.90;;;6.50;;
8584;SDS011;7180;52.742;11.420;2022-08-04T17:03:14;6.82;;;6.30;;
8584;SDS011;7180;52.742;11.420;2022-08-04T17:05:40;6.85;;;6.50;;
8584;SDS011;7180;52.742;11.420;2022-08-04T17:08:08;6.78;;;6.38;;
8584;SDS011;7180;52.742;11.420;2022-08-04T17:10:41;7.03;;;6.70;;
8584;SDS011;7180;52.742;11.420;2022-08-04T17:13:21;7.00;;;6.50;;
8584;SDS011;7180;52.742;11.420;2022-08-04T17:15:49;6.45;;;6.05;;
8584;SDS011;7180;52.742;11.420;2022-08-04T17:18:58;6.57;;;6.10;;
8584;SDS011;7180;52.742;11.420;2022-08-04T17:21:16;6.80;;;6.20;;
8584;SDS011;7180;52.742;11.420;2022-08-04T17:23:44;6.55;;;6.07;;
8584;SDS011;7180;52.742;11.420;2022-08-04T17:26:14;7.30;;;6.75;;
8584;SDS011;7180;52.742;11.420;2022-08-04T17:28:46;6.82;;;6.47;;
8584;SDS011;7180;52.742;11.420;2022-08-04T17:31:13;6.85;;;6.20;;
8584;SDS011;7180;52.742;11.420;2022-08-04T17:33:43;7.10;;;6.70;;
8584;SDS011;7180;52.742;11.420;2022-08-04T17:36:10;5.95;;;5.45;;
8584;SDS011;7180;52.742;11.420;2022-08-04T17:38:39;5.95;;;5.55;;
8584;SDS011;7180;52.742;11.420;2022-08-04T17:41:13;6.15;;;5.85;;
8584;SDS011;7180;52.742;11.420;2022-08-04T17:43:41;6.20;;;5.80;;
8584;SDS011;7180;52.742;11.420;2022-08-04T17:48:44;6.50;;;6.10;;
8584;SDS011;7180;52.742;11.420;2022-08-04T17:51:18;6.32;;;5.93;;
8584;SDS011;7180;52.742;11.420;2022-08-04T17:53:43;6.00;;;5.70;;
8584;SDS011;7180;52.742;11.420;2022-08-04T17:59:11;6.55;;;6.15;;
8584;SDS011;7180;52.742;11.420;2022-08-04T18:01:47;6.68;;;6.10;;
8584;SDS011;7180;52.742;11.420;2022-08-04T18:04:25;6.50;;;6.10;;
8584;SDS011;7180;52.742;11.420;2022-08-04T18:06:52;7.00;;;6.60;;
8584;SDS011;7180;52.742;11.420;2022-08-04T18:09:30;6.68;;;6.38;;
8584;SDS011;7180;52.742;11.420;2022-08-04T18:12:04;6.85;;;6.45;;
8584;SDS011;7180;52.742;11.420;2022-08-04T18:17:07;6.80;;;6.50;;
8584;SDS011;7180;52.742;11.420;2022-08-04T18:19:33;6.90;;;6.50;;
8584;SDS011;7180;52.742;11.420;2022-08-04T18:21:59;7.30;;;6.70;;
8584;SDS011;7180;52.742;11.420;2022-08-04T18:24:27;6.68;;;6.18;;
8584;SDS011;7180;52.742;11.420;2022-08-04T18:26:54;7.32;;;6.72;;
8584;SDS011;7180;52.742;11.420;2022-08-04T18:29:19;7.60;;;7.00;;
8584;SDS011;7180;52.742;11.420;2022-08-04T18:31:44;7.38;;;6.82;;
8584;SDS011;7180;52.742;11.420;2022-08-04T18:34:10;7.32;;;6.82;;
8584;SDS011;7180;52.742;11.420;2022-08-04T18:36:35;7.35;;;6.95;;
8584;SDS011;7180;52.742;11.420;2022-08-04T18:39:02;7.60;;;7.00;;
8584;SDS011;7180;52.742;11.420;2022-08-04T18:41:29;7.50;;;6.93;;
8584;SDS011;7180;52.742;11.420;2022-08-04T18:43:54;7.40;;;6.90;;
8584;SDS011;7180;52.742;11.420;2022-08-04T18:46:21;7.75;;;7.07;;
8584;SDS011;7180;52.742;11.420;2022-08-04T18:48:47;7.72;;;7.03;;
8584;SDS011;7180;52.742;11.420;2022-08-04T18:51:12;7.65;;;7.10;;
8584;SDS011;7180;52.742;11.420;2022-08-04T18:53:38;7.88;;;7.22;;
8584;SDS011;7180;52.742;11.420;2022-08-04T18:56:03;7.28;;;6.93;;
8584;SDS011;7180;52.742;11.420;2022-08-04T18:58:29;8.30;;;7.70;;
8584;SDS011;7180;52.742;11.420;2022-08-04T19:00:54;7.97;;;7.40;;
8584;SDS011;7180;52.742;11.420;2022-08-04T19:03:20;7.22;;;6.75;;
8584;SDS011;7180;52.742;11.420;2022-08-04T19:05:45;7.60;;;7.10;;
8584;SDS011;7180;52.742;11.420;2022-08-04T19:08:10;7.13;;;6.60;;
8584;SDS011;7180;52.742;11.420;2022-08-04T19:10:36;6.93;;;6.40;;
8584;SDS011;7180;52.742;11.420;2022-08-04T19:13:01;6.90;;;6.30;;
8584;SDS011;7180;52.742;11.420;2022-08-04T19:15:26;6.63;;;6.13;;
8584;SDS011;7180;52.742;11.420;2022-08-04T19:17:54;7.00;;;6.60;;
8584;SDS011;7180;52.742;11.420;2022-08-04T19:20:19;6.65;;;6.10;;
8584;SDS011;7180;52.742;11.420;2022-08-04T19:22:45;6.47;;;6.10;;
8584;SDS011;7180;52.742;11.420;2022-08-04T19:25:10;7.13;;;6.38;;
8584;SDS011;7180;52.742;11.420;2022-08-04T19:27:35;6.63;;;6.22;;
8584;SDS011;7180;52.742;11.420;2022-08-04T19:30:01;6.88;;;6.45;;
8584;SDS011;7180;52.742;11.420;2022-08-04T19:32:26;6.97;;;6.40;;
8584;SDS011;7180;52.742;11.420;2022-08-04T19:34:51;6.60;;;6.10;;